createdAt,value
2016-12-09T00:00:34.382Z,0
2016-12-09T00:01:34.312Z,0
2016-12-09T00:02:34.492Z,0
2016-12-09T00:03:34.362Z,0
2016-12-09T00:04:34.324Z,0
2016-12-09T00:05:34.301Z,0
2016-12-09T00:06:34.361Z,0
2016-12-09T00:07:34.391Z,0
2016-12-09T00:08:34.405Z,0
2016-12-09T00:09:34.399Z,0
2016-12-09T00:10:34.462Z,0
2016-12-09T00:11:34.469Z,0
2016-12-09T00:12:34.528Z,0
2016-12-09T00:13:34.432Z,0
2016-12-09T00:14:34.253Z,0
2016-12-09T00:15:34.275Z,0
2016-12-09T00:16:34.280Z,0
2016-12-09T00:17:34.450Z,0
2016-12-09T00:18:34.484Z,0
2016-12-09T00:19:34.375Z,0
2016-12-09T00:20:34.447Z,0
2016-12-09T00:21:34.560Z,0
2016-12-09T00:22:34.270Z,0
2016-12-09T00:23:34.478Z,0
2016-12-09T00:24:34.560Z,0
2016-12-09T00:25:34.391Z,0
2016-12-09T00:26:34.498Z,0
2016-12-09T00:27:34.451Z,0
2016-12-09T00:28:34.325Z,0
2016-12-09T00:29:34.228Z,0
2016-12-09T00:30:34.283Z,0
2016-12-09T00:31:34.343Z,0
2016-12-09T00:32:34.234Z,0
2016-12-09T00:33:34.234Z,0
2016-12-09T00:34:34.225Z,0
2016-12-09T00:35:34.306Z,0
2016-12-09T00:36:34.430Z,0
2016-12-09T00:37:34.393Z,0
2016-12-09T00:38:34.275Z,0
2016-12-09T00:39:34.294Z,0
2016-12-09T00:40:35.153Z,0
2016-12-09T00:41:34.426Z,0
2016-12-09T00:42:34.397Z,0
2016-12-09T00:43:34.411Z,0
2016-12-09T00:44:34.287Z,0
2016-12-09T00:45:35.263Z,0
2016-12-09T00:46:34.292Z,0
2016-12-09T00:47:34.330Z,0
2016-12-09T00:48:34.396Z,0
2016-12-09T00:49:34.388Z,0
2016-12-09T00:50:34.543Z,0
2016-12-09T00:51:35.232Z,0
2016-12-09T00:52:34.376Z,0
2016-12-09T00:53:34.592Z,0
2016-12-09T00:54:34.406Z,0
2016-12-09T00:55:34.490Z,0
2016-12-09T00:56:34.439Z,0
2016-12-09T00:57:34.337Z,0
2016-12-09T00:58:34.505Z,0
2016-12-09T00:59:34.339Z,0
2016-12-09T01:00:34.524Z,0
2016-12-09T01:01:34.537Z,0
2016-12-09T01:02:34.548Z,0
2016-12-09T01:03:34.556Z,0
2016-12-09T01:04:34.592Z,0
2016-12-09T01:05:34.523Z,0
2016-12-09T01:06:34.521Z,0
2016-12-09T01:07:34.489Z,0
2016-12-09T01:08:34.542Z,0
2016-12-09T01:09:34.345Z,0
2016-12-09T01:10:34.239Z,0
2016-12-09T01:11:34.404Z,0
2016-12-09T01:12:34.364Z,0
2016-12-09T01:13:34.460Z,0
2016-12-09T01:14:34.607Z,0
2016-12-09T01:15:34.642Z,0
2016-12-09T01:16:34.339Z,0
2016-12-09T01:17:34.618Z,0
2016-12-09T01:18:34.449Z,0
2016-12-09T01:19:34.397Z,0
2016-12-09T01:20:34.549Z,0
2016-12-09T01:21:34.825Z,0
2016-12-09T01:22:34.585Z,0
2016-12-09T01:23:34.397Z,0
2016-12-09T01:24:34.474Z,0
2016-12-09T01:25:34.292Z,0
2016-12-09T01:26:34.367Z,0
2016-12-09T01:27:34.400Z,0
2016-12-09T01:28:34.528Z,0
2016-12-09T01:29:34.578Z,0
2016-12-09T01:30:34.472Z,0
2016-12-09T01:31:35.233Z,0
2016-12-09T01:32:35.005Z,0
2016-12-09T01:33:34.562Z,0
2016-12-09T01:34:34.687Z,0
2016-12-09T01:35:34.504Z,0
2016-12-09T01:36:34.641Z,0
2016-12-09T01:37:34.707Z,0
2016-12-09T01:38:34.478Z,0
2016-12-09T01:39:34.683Z,0
2016-12-09T01:40:34.575Z,0
2016-12-09T01:41:34.397Z,0
2016-12-09T01:42:34.758Z,0
2016-12-09T01:43:34.776Z,0
2016-12-09T01:44:34.608Z,0
2016-12-09T01:45:34.675Z,0
2016-12-09T01:46:34.312Z,0
2016-12-09T01:47:34.688Z,0
2016-12-09T01:48:34.374Z,0
2016-12-09T01:49:34.524Z,0
2016-12-09T01:50:34.373Z,0
2016-12-09T01:51:35.226Z,0
2016-12-09T01:52:35.320Z,0
2016-12-09T01:53:34.703Z,0
2016-12-09T01:54:34.720Z,0
2016-12-09T01:55:34.625Z,0
2016-12-09T01:56:34.508Z,0
2016-12-09T01:57:34.603Z,0
2016-12-09T01:58:34.411Z,0
2016-12-09T01:59:34.616Z,0
2016-12-09T02:00:34.661Z,0
2016-12-09T02:01:34.724Z,0
2016-12-09T02:02:34.552Z,0
2016-12-09T02:03:34.509Z,0
2016-12-09T02:04:34.482Z,0
2016-12-09T02:05:34.521Z,0
2016-12-09T02:06:34.411Z,0
2016-12-09T02:07:34.480Z,0
2016-12-09T02:08:34.725Z,0
2016-12-09T02:09:35.515Z,0
2016-12-09T02:10:35.353Z,0
2016-12-09T02:11:34.780Z,0
2016-12-09T02:12:35.899Z,0
2016-12-09T02:13:34.316Z,0
2016-12-09T02:14:34.414Z,0
2016-12-09T02:15:34.320Z,0
2016-12-09T02:16:34.340Z,0
2016-12-09T02:17:34.385Z,0
2016-12-09T02:18:34.373Z,0
2016-12-09T02:19:34.575Z,0
2016-12-09T02:20:34.707Z,0
2016-12-09T02:21:34.638Z,0
2016-12-09T02:22:34.473Z,0
2016-12-09T02:23:35.236Z,0
2016-12-09T02:24:34.452Z,0
2016-12-09T02:25:34.476Z,0
2016-12-09T02:26:34.529Z,0
2016-12-09T02:27:34.438Z,0
2016-12-09T02:28:35.106Z,0
2016-12-09T02:29:34.348Z,0
2016-12-09T02:30:34.330Z,0
2016-12-09T02:31:34.752Z,0
2016-12-09T02:32:34.937Z,0
2016-12-09T02:33:34.552Z,0
2016-12-09T02:34:34.633Z,0
2016-12-09T02:35:34.740Z,0
2016-12-09T02:36:34.581Z,0
2016-12-09T02:37:34.573Z,0
2016-12-09T02:38:34.673Z,0
2016-12-09T02:39:34.433Z,0
2016-12-09T02:40:34.518Z,0
2016-12-09T02:41:34.457Z,0
2016-12-09T02:42:34.511Z,0
2016-12-09T02:43:34.452Z,0
2016-12-09T02:44:35.380Z,0
2016-12-09T02:45:34.455Z,0
2016-12-09T02:46:34.789Z,0
2016-12-09T02:47:34.497Z,0
2016-12-09T02:48:34.727Z,0
2016-12-09T02:49:34.499Z,0
2016-12-09T02:50:34.434Z,0
2016-12-09T02:51:34.548Z,0
2016-12-09T02:52:34.360Z,0
2016-12-09T02:53:34.695Z,0
2016-12-09T02:54:34.790Z,0
2016-12-09T02:55:34.847Z,0
2016-12-09T02:56:34.315Z,0
2016-12-09T02:57:34.364Z,0
2016-12-09T02:58:34.512Z,0
2016-12-09T02:59:34.719Z,0
2016-12-09T03:00:34.685Z,0
2016-12-09T03:01:34.600Z,0
2016-12-09T03:02:34.589Z,0
2016-12-09T03:03:34.605Z,0
2016-12-09T03:04:34.549Z,0
2016-12-09T03:05:34.499Z,0
2016-12-09T03:06:34.820Z,0
2016-12-09T03:07:34.682Z,0
2016-12-09T03:08:34.667Z,0
2016-12-09T03:09:34.738Z,0
2016-12-09T03:10:34.720Z,0
2016-12-09T03:11:34.365Z,0
2016-12-09T03:12:34.669Z,0
2016-12-09T03:13:34.773Z,0
2016-12-09T03:14:34.626Z,0
2016-12-09T03:15:34.512Z,0
2016-12-09T03:16:34.581Z,0
2016-12-09T03:17:34.689Z,0
2016-12-09T03:18:35.074Z,0
2016-12-09T03:19:35.102Z,0
2016-12-09T03:20:34.653Z,0
2016-12-09T03:21:34.545Z,0
2016-12-09T03:22:34.723Z,0
2016-12-09T03:23:34.922Z,0
2016-12-09T03:24:34.634Z,0
2016-12-09T03:25:34.665Z,0
2016-12-09T03:26:34.573Z,0
2016-12-09T03:27:34.768Z,0
2016-12-09T03:28:34.676Z,0
2016-12-09T03:29:34.664Z,0
2016-12-09T03:30:34.519Z,0
2016-12-09T03:31:34.506Z,0
2016-12-09T03:32:34.672Z,0
2016-12-09T03:33:34.530Z,0
2016-12-09T03:34:34.523Z,0
2016-12-09T03:35:34.529Z,0
2016-12-09T03:36:34.578Z,0
2016-12-09T03:37:34.646Z,0
2016-12-09T03:38:34.448Z,0
2016-12-09T03:39:34.601Z,0
2016-12-09T03:40:34.673Z,0
2016-12-09T03:41:34.564Z,0
2016-12-09T03:42:34.764Z,0
2016-12-09T03:43:34.576Z,0
2016-12-09T03:44:34.710Z,0
2016-12-09T03:45:34.590Z,0
2016-12-09T03:46:34.717Z,0
2016-12-09T03:47:34.657Z,0
2016-12-09T03:48:34.565Z,0
2016-12-09T03:49:34.673Z,0
2016-12-09T03:50:34.688Z,0
2016-12-09T03:51:34.618Z,0
2016-12-09T03:52:34.601Z,0
2016-12-09T03:53:34.452Z,0
2016-12-09T03:54:34.664Z,0
2016-12-09T03:55:34.845Z,0
2016-12-09T03:56:34.572Z,0
2016-12-09T03:57:34.660Z,0
2016-12-09T03:58:34.706Z,0
2016-12-09T03:59:34.602Z,0
2016-12-09T04:00:34.621Z,0
2016-12-09T04:01:34.381Z,0
2016-12-09T04:02:34.580Z,0
2016-12-09T04:03:34.543Z,0
2016-12-09T04:04:34.705Z,0
2016-12-09T04:05:34.601Z,0
2016-12-09T04:06:34.718Z,0
2016-12-09T04:07:34.660Z,0
2016-12-09T04:08:34.509Z,0
2016-12-09T04:09:34.675Z,0
2016-12-09T04:10:34.689Z,0
2016-12-09T04:11:34.597Z,0
2016-12-09T04:12:34.600Z,0
2016-12-09T04:13:34.583Z,0
2016-12-09T04:14:34.583Z,0
2016-12-09T04:15:34.521Z,0
2016-12-09T04:16:34.794Z,0
2016-12-09T04:17:34.623Z,0
2016-12-09T04:18:34.542Z,0
2016-12-09T04:19:34.553Z,0
2016-12-09T04:20:34.441Z,0
2016-12-09T04:21:34.720Z,0
2016-12-09T04:22:34.782Z,0
2016-12-09T04:23:34.689Z,0
2016-12-09T04:24:34.759Z,0
2016-12-09T04:25:34.931Z,0
2016-12-09T04:26:35.252Z,0
2016-12-09T04:27:34.738Z,0
2016-12-09T04:28:34.723Z,0
2016-12-09T04:29:34.710Z,0
2016-12-09T04:30:34.701Z,0
2016-12-09T04:31:34.678Z,0
2016-12-09T04:32:34.821Z,0
2016-12-09T04:33:34.773Z,0
2016-12-09T04:34:34.677Z,0
2016-12-09T04:35:34.607Z,0
2016-12-09T04:36:34.557Z,0
2016-12-09T04:37:34.869Z,0
2016-12-09T04:38:34.832Z,0
2016-12-09T04:39:34.719Z,0
2016-12-09T04:40:34.664Z,0
2016-12-09T04:41:34.838Z,0
2016-12-09T04:42:34.670Z,0
2016-12-09T04:43:34.773Z,0
2016-12-09T04:44:34.793Z,0
2016-12-09T04:45:34.739Z,0
2016-12-09T04:46:34.685Z,0
2016-12-09T04:47:34.793Z,0
2016-12-09T04:48:34.718Z,0
2016-12-09T04:49:34.894Z,0
2016-12-09T04:50:34.597Z,0
2016-12-09T04:51:34.661Z,0
2016-12-09T04:52:34.810Z,0
2016-12-09T04:53:34.779Z,0
2016-12-09T04:54:34.828Z,0
2016-12-09T04:55:34.768Z,0
2016-12-09T04:56:34.610Z,0
2016-12-09T04:57:34.574Z,0
2016-12-09T04:58:34.828Z,0
2016-12-09T04:59:34.849Z,0
2016-12-09T05:00:34.576Z,0
2016-12-09T05:01:34.996Z,0
2016-12-09T05:02:34.868Z,0
2016-12-09T05:03:34.737Z,0
2016-12-09T05:04:34.812Z,0
2016-12-09T05:05:34.597Z,0
2016-12-09T05:06:34.860Z,0
2016-12-09T05:07:34.763Z,0
2016-12-09T05:08:34.694Z,0
2016-12-09T05:09:34.641Z,0
2016-12-09T05:10:34.705Z,0
2016-12-09T05:11:34.761Z,0
2016-12-09T05:12:34.657Z,0
2016-12-09T05:13:34.636Z,0
2016-12-09T05:14:34.642Z,0
2016-12-09T05:15:34.521Z,0
2016-12-09T05:16:34.625Z,0
2016-12-09T05:17:34.887Z,0
2016-12-09T05:18:34.779Z,0
2016-12-09T05:19:34.753Z,0
2016-12-09T05:20:34.765Z,0
2016-12-09T05:21:34.788Z,0
2016-12-09T05:22:34.686Z,0
2016-12-09T05:23:34.678Z,0
2016-12-09T05:24:34.750Z,0
2016-12-09T05:25:34.790Z,0
2016-12-09T05:26:34.785Z,0
2016-12-09T05:27:34.886Z,0
2016-12-09T05:28:34.665Z,0
2016-12-09T05:29:34.471Z,0
2016-12-09T05:30:34.655Z,0
2016-12-09T05:31:34.615Z,0
2016-12-09T05:32:35.446Z,0
2016-12-09T05:33:34.786Z,0
2016-12-09T05:34:34.808Z,0
2016-12-09T05:35:34.707Z,0
2016-12-09T05:36:34.785Z,0
2016-12-09T05:37:34.706Z,0
2016-12-09T05:38:34.805Z,0
2016-12-09T05:39:34.660Z,0
2016-12-09T05:40:35.486Z,0
2016-12-09T05:41:35.063Z,0
2016-12-09T05:42:35.770Z,0
2016-12-09T05:43:34.978Z,0
2016-12-09T05:44:34.797Z,0
2016-12-09T05:45:34.841Z,0
2016-12-09T05:46:34.745Z,0
2016-12-09T05:47:34.689Z,0
2016-12-09T05:48:34.889Z,0
2016-12-09T05:49:34.829Z,0
2016-12-09T05:50:34.732Z,0
2016-12-09T05:51:34.739Z,0
2016-12-09T05:52:35.001Z,0
2016-12-09T05:53:34.885Z,0
2016-12-09T05:54:34.872Z,0
2016-12-09T05:55:35.223Z,0
2016-12-09T05:56:35.061Z,0
2016-12-09T05:57:34.848Z,0
2016-12-09T05:58:35.097Z,0
2016-12-09T05:59:34.861Z,0
2016-12-09T06:00:34.541Z,0
2016-12-09T06:01:35.634Z,0
2016-12-09T06:02:34.881Z,0
2016-12-09T06:03:34.797Z,0
2016-12-09T06:04:34.939Z,0
2016-12-09T06:05:34.886Z,0
2016-12-09T06:06:35.114Z,0
2016-12-09T06:07:34.880Z,0
2016-12-09T06:08:34.732Z,0
2016-12-09T06:09:35.015Z,0
2016-12-09T06:10:34.901Z,0
2016-12-09T06:11:34.942Z,0
2016-12-09T06:12:34.861Z,0
2016-12-09T06:13:34.971Z,0
2016-12-09T06:14:34.641Z,0
2016-12-09T06:15:34.891Z,0
2016-12-09T06:16:34.543Z,0
2016-12-09T06:17:34.656Z,0
2016-12-09T06:18:34.717Z,0
2016-12-09T06:19:34.609Z,0
2016-12-09T06:20:34.848Z,0
2016-12-09T06:21:34.942Z,0
2016-12-09T06:22:36.191Z,0
2016-12-09T06:23:34.848Z,0
2016-12-09T06:24:34.759Z,0
2016-12-09T06:25:34.842Z,0
2016-12-09T06:26:34.789Z,0
2016-12-09T06:27:34.899Z,0
2016-12-09T06:28:34.840Z,0
2016-12-09T06:29:34.467Z,0
2016-12-09T06:30:34.650Z,0
2016-12-09T06:31:34.896Z,0
2016-12-09T06:32:34.903Z,0
2016-12-09T06:33:34.955Z,0
2016-12-09T06:34:34.844Z,0
2016-12-09T06:35:34.763Z,0
2016-12-09T06:36:34.936Z,0
2016-12-09T06:37:34.869Z,0
2016-12-09T06:38:34.653Z,0
2016-12-09T06:39:35.427Z,0
2016-12-09T06:40:34.755Z,0
2016-12-09T06:41:34.848Z,0
2016-12-09T06:42:34.954Z,0
2016-12-09T06:43:34.791Z,0
2016-12-09T06:44:34.858Z,0
2016-12-09T06:45:34.834Z,0
2016-12-09T06:46:34.967Z,0
2016-12-09T06:47:34.643Z,0
2016-12-09T06:48:34.997Z,0
2016-12-09T06:49:35.002Z,0
2016-12-09T06:50:34.867Z,0
2016-12-09T06:51:35.559Z,0
2016-12-09T06:52:35.123Z,0
2016-12-09T06:53:34.875Z,0
2016-12-09T06:54:34.834Z,0
2016-12-09T06:55:34.913Z,0
2016-12-09T06:56:34.805Z,0
2016-12-09T06:57:34.834Z,0
2016-12-09T06:58:35.582Z,0
2016-12-09T06:59:35.015Z,0
2016-12-09T07:00:34.852Z,0
2016-12-09T07:01:35.353Z,0
2016-12-09T07:02:34.913Z,0
2016-12-09T07:03:35.139Z,0
2016-12-09T07:04:35.041Z,0
2016-12-09T07:05:34.810Z,0
2016-12-09T07:06:34.900Z,0
2016-12-09T07:07:35.459Z,0
2016-12-09T07:08:34.985Z,0
2016-12-09T07:09:35.003Z,0
2016-12-09T07:10:35.117Z,0
2016-12-09T07:11:34.936Z,0
2016-12-09T07:12:35.190Z,0
2016-12-09T07:13:35.116Z,0
2016-12-09T07:14:35.491Z,0
2016-12-09T07:15:35.340Z,0
2016-12-09T07:16:35.174Z,0
2016-12-09T07:17:36.032Z,0
2016-12-09T07:18:35.290Z,0
2016-12-09T07:19:35.262Z,0
2016-12-09T07:20:35.257Z,0
2016-12-09T07:21:35.218Z,0
2016-12-09T07:22:35.345Z,0
2016-12-09T07:23:35.472Z,0
2016-12-09T07:24:35.177Z,0
2016-12-09T07:25:34.997Z,0
2016-12-09T07:26:35.272Z,0
2016-12-09T07:27:35.587Z,0
2016-12-09T07:28:35.181Z,0
2016-12-09T07:29:35.288Z,0
2016-12-09T07:30:35.370Z,0
2016-12-09T07:31:35.217Z,0
2016-12-09T07:32:35.280Z,5
2016-12-09T07:33:35.494Z,5
2016-12-09T07:34:35.364Z,5
2016-12-09T07:35:35.647Z,5
2016-12-09T07:36:35.324Z,5
2016-12-09T07:37:36.332Z,5
2016-12-09T07:38:35.478Z,5
2016-12-09T07:39:36.097Z,5
2016-12-09T07:40:36.153Z,5
2016-12-09T07:41:35.304Z,5
2016-12-09T07:42:35.162Z,5
2016-12-09T07:43:35.047Z,5
2016-12-09T07:44:35.023Z,5
2016-12-09T07:45:35.089Z,5
2016-12-09T07:46:35.119Z,5
2016-12-09T07:47:35.275Z,5
2016-12-09T07:48:35.143Z,5
2016-12-09T07:49:35.120Z,5
2016-12-09T07:50:35.054Z,10
2016-12-09T07:51:35.079Z,10
2016-12-09T07:52:35.115Z,10
2016-12-09T07:53:35.137Z,10
2016-12-09T07:54:35.144Z,10
2016-12-09T07:55:35.254Z,10
2016-12-09T07:56:35.201Z,10
2016-12-09T07:57:35.110Z,15
2016-12-09T07:58:34.983Z,15
2016-12-09T07:59:35.138Z,15
2016-12-09T08:00:35.320Z,15
2016-12-09T08:01:35.433Z,20
2016-12-09T08:02:35.484Z,20
2016-12-09T08:03:35.343Z,20
2016-12-09T08:04:35.254Z,20
2016-12-09T08:05:35.040Z,25
2016-12-09T08:06:35.639Z,25
2016-12-09T08:07:35.393Z,25
2016-12-09T08:08:35.265Z,25
2016-12-09T08:09:35.475Z,25
2016-12-09T08:10:35.209Z,25
2016-12-09T08:11:35.359Z,20
2016-12-09T08:12:35.318Z,20
2016-12-09T08:13:35.193Z,25
2016-12-09T08:14:35.588Z,25
2016-12-09T08:15:35.213Z,25
2016-12-09T08:16:34.953Z,25
2016-12-09T08:17:35.446Z,25
2016-12-09T08:18:35.251Z,30
2016-12-09T08:19:35.405Z,30
2016-12-09T08:20:35.059Z,30
2016-12-09T08:21:46.113Z,25
2016-12-09T08:22:45.149Z,30
2016-12-09T08:23:45.144Z,30
2016-12-09T08:24:37.098Z,35
2016-12-09T08:25:42.512Z,35
2016-12-09T08:26:44.200Z,35
2016-12-09T08:27:34.941Z,35
2016-12-09T08:28:43.505Z,35
2016-12-09T08:29:44.949Z,40
2016-12-09T08:30:44.978Z,45
2016-12-09T08:31:45.558Z,45
2016-12-09T08:32:44.775Z,45
2016-12-09T08:33:44.753Z,45
2016-12-09T08:34:46.239Z,50
2016-12-09T08:35:44.787Z,50
2016-12-09T08:36:45.863Z,50
2016-12-09T08:37:34.596Z,45
2016-12-09T08:38:34.668Z,50
2016-12-09T08:39:35.019Z,45
2016-12-09T08:40:34.868Z,50
2016-12-09T08:41:34.884Z,55
2016-12-09T08:42:35.161Z,50
2016-12-09T08:43:35.234Z,50
2016-12-09T08:44:35.630Z,55
2016-12-09T08:45:35.051Z,55
2016-12-09T08:46:35.352Z,50
2016-12-09T08:47:35.305Z,55
2016-12-09T08:48:34.996Z,60
2016-12-09T08:49:35.963Z,65
2016-12-09T08:50:34.859Z,65
2016-12-09T08:51:35.187Z,65
2016-12-09T08:52:34.874Z,70
2016-12-09T08:53:34.721Z,65
2016-12-09T08:54:34.979Z,70
2016-12-09T08:55:35.088Z,75
2016-12-09T08:56:35.096Z,75
2016-12-09T08:57:34.963Z,70
2016-12-09T08:58:35.087Z,75
2016-12-09T08:59:34.726Z,75
2016-12-09T09:00:34.916Z,70
2016-12-09T09:01:35.183Z,65
2016-12-09T09:02:34.863Z,65
2016-12-09T09:03:34.737Z,65
2016-12-09T09:04:35.043Z,70
2016-12-09T09:05:35.113Z,60
2016-12-09T09:06:35.030Z,65
2016-12-09T09:07:34.768Z,70
2016-12-09T09:08:35.003Z,60
2016-12-09T09:09:35.079Z,65
2016-12-09T09:10:35.214Z,65
2016-12-09T09:11:35.067Z,65
2016-12-09T09:12:43.632Z,70
2016-12-09T09:13:35.342Z,70
2016-12-09T09:14:34.762Z,75
2016-12-09T09:15:34.872Z,75
2016-12-09T09:16:34.826Z,70
2016-12-09T09:17:34.680Z,65
2016-12-09T09:18:34.655Z,65
2016-12-09T09:19:35.196Z,70
2016-12-09T09:20:34.688Z,70
2016-12-09T09:21:35.306Z,70
2016-12-09T09:22:34.824Z,75
2016-12-09T09:23:35.102Z,70
2016-12-09T09:24:35.124Z,70
2016-12-09T09:25:35.012Z,65
2016-12-09T09:26:35.129Z,65
2016-12-09T09:27:35.346Z,70
2016-12-09T09:28:35.519Z,70
2016-12-09T09:29:35.380Z,65
2016-12-09T09:30:35.558Z,70
2016-12-09T09:31:35.427Z,65
2016-12-09T09:32:35.400Z,65
2016-12-09T09:33:35.429Z,60
2016-12-09T09:34:35.423Z,60
2016-12-09T09:35:35.529Z,55
2016-12-09T09:36:35.486Z,55
2016-12-09T09:37:35.640Z,65
2016-12-09T09:38:35.589Z,60
2016-12-09T09:39:35.398Z,55
2016-12-09T09:40:35.566Z,55
2016-12-09T09:41:35.270Z,55
2016-12-09T09:42:35.223Z,50
2016-12-09T09:43:34.945Z,55
2016-12-09T09:44:35.262Z,50
2016-12-09T09:45:34.716Z,50
2016-12-09T09:46:35.273Z,45
2016-12-09T09:47:35.211Z,50
2016-12-09T09:48:35.198Z,55
2016-12-09T09:49:35.549Z,55
2016-12-09T09:50:35.419Z,55
2016-12-09T09:51:35.448Z,55
2016-12-09T09:52:35.420Z,55
2016-12-09T09:53:35.162Z,60
2016-12-09T09:54:35.106Z,55
2016-12-09T09:55:35.537Z,60
2016-12-09T09:56:35.402Z,70
2016-12-09T09:57:35.393Z,80
2016-12-09T09:58:35.360Z,70
2016-12-09T09:59:35.149Z,70
2016-12-09T10:00:34.969Z,65
2016-12-09T10:01:35.312Z,55
2016-12-09T10:02:35.067Z,60
2016-12-09T10:03:35.134Z,65
2016-12-09T10:04:35.302Z,60
2016-12-09T10:05:35.406Z,55
2016-12-09T10:06:35.086Z,65
2016-12-09T10:07:35.238Z,70
2016-12-09T10:08:35.072Z,65
2016-12-09T10:09:35.075Z,65
2016-12-09T10:10:35.283Z,75
2016-12-09T10:11:35.147Z,70
2016-12-09T10:12:35.257Z,60
2016-12-09T10:13:35.178Z,65
2016-12-09T10:14:35.391Z,65
2016-12-09T10:15:35.167Z,65
2016-12-09T10:16:35.129Z,60
2016-12-09T10:17:34.986Z,60
2016-12-09T10:18:35.089Z,70
2016-12-09T10:19:35.165Z,70
2016-12-09T10:20:35.125Z,70
2016-12-09T10:21:34.956Z,60
2016-12-09T10:22:35.048Z,60
2016-12-09T10:23:35.091Z,65
2016-12-09T10:24:35.241Z,75
2016-12-09T10:25:35.016Z,85
2016-12-09T10:26:35.071Z,90
2016-12-09T10:27:35.030Z,90
2016-12-09T10:28:34.910Z,80
2016-12-09T10:29:35.001Z,75
2016-12-09T10:30:34.822Z,80
2016-12-09T10:31:35.215Z,90
2016-12-09T10:32:34.747Z,90
2016-12-09T10:33:34.770Z,90
2016-12-09T10:34:34.868Z,85
2016-12-09T10:35:34.885Z,80
2016-12-09T10:36:34.717Z,90
2016-12-09T10:37:34.755Z,95
2016-12-09T10:38:35.017Z,85
2016-12-09T10:39:35.138Z,80
2016-12-09T10:40:35.144Z,80
2016-12-09T10:41:34.973Z,75
2016-12-09T10:42:35.120Z,80
2016-12-09T10:43:35.024Z,85
2016-12-09T10:44:34.973Z,85
2016-12-09T10:45:34.934Z,85
2016-12-09T10:46:35.141Z,85
2016-12-09T10:47:35.038Z,90
2016-12-09T10:48:35.184Z,85
2016-12-09T10:49:35.226Z,95
2016-12-09T10:52:58.669Z,80
2016-12-09T10:53:58.726Z,80
2016-12-09T10:54:58.839Z,80
2016-12-09T10:55:58.726Z,85
2016-12-09T10:56:58.814Z,80
2016-12-09T10:57:58.704Z,80
2016-12-09T10:58:58.889Z,85
2016-12-09T10:59:58.681Z,90
2016-12-09T11:00:58.938Z,80
2016-12-09T11:01:58.740Z,70
2016-12-09T11:02:59.031Z,65
2016-12-09T11:03:58.665Z,65
2016-12-09T11:04:58.653Z,65
2016-12-09T11:05:58.742Z,65
2016-12-09T11:06:58.702Z,65
2016-12-09T11:07:58.670Z,70
2016-12-09T11:08:58.995Z,80
2016-12-09T11:09:58.761Z,85
2016-12-09T11:10:58.854Z,90
2016-12-09T11:11:58.878Z,90
2016-12-09T11:12:58.641Z,85
2016-12-09T11:13:58.713Z,95
2016-12-09T11:14:58.565Z,85
2016-12-09T11:15:59.130Z,95
2016-12-09T11:16:58.662Z,95
2016-12-09T11:17:58.659Z,85
2016-12-09T11:18:58.564Z,85
2016-12-09T11:19:58.772Z,80
2016-12-09T11:20:58.444Z,75
2016-12-09T11:21:58.623Z,75
2016-12-09T11:22:58.620Z,80
2016-12-09T11:23:59.039Z,85
2016-12-09T11:24:58.597Z,95
2016-12-09T11:25:58.669Z,100
2016-12-09T11:26:58.777Z,95
2016-12-09T11:27:58.685Z,105
2016-12-09T11:28:58.700Z,110
2016-12-09T11:29:58.625Z,105
2016-12-09T11:30:58.629Z,100
2016-12-09T11:31:58.671Z,105
2016-12-09T11:32:58.779Z,100
2016-12-09T11:33:58.913Z,105
2016-12-09T11:34:58.838Z,90
2016-12-09T11:35:58.786Z,80
2016-12-09T11:36:58.878Z,90
2016-12-09T11:37:58.799Z,95
2016-12-09T11:38:58.865Z,90
2016-12-09T11:39:58.814Z,105
2016-12-09T11:40:58.860Z,100
2016-12-09T11:41:58.779Z,90
2016-12-09T11:42:58.630Z,80
2016-12-09T11:43:59.023Z,80
2016-12-09T11:44:59.874Z,80
2016-12-09T11:45:59.482Z,85
2016-12-09T11:46:59.438Z,100
2016-12-09T11:47:58.938Z,100
2016-12-09T11:48:59.912Z,85
2016-12-09T11:49:59.879Z,85
2016-12-09T11:50:59.310Z,85
2016-12-09T11:51:58.957Z,80
2016-12-09T11:53:01.066Z,95
2016-12-09T11:53:59.410Z,100
2016-12-09T11:54:58.967Z,100
2016-12-09T11:55:58.909Z,100
2016-12-09T11:56:59.608Z,115
2016-12-09T11:57:58.941Z,110
2016-12-09T11:58:58.902Z,105
2016-12-09T11:59:58.810Z,100
2016-12-09T12:00:59.148Z,100
2016-12-09T12:01:59.176Z,110
2016-12-09T12:02:59.047Z,105
2016-12-09T12:03:59.120Z,80
2016-12-09T12:04:58.631Z,90
2016-12-09T12:05:58.783Z,95
2016-12-09T12:06:58.786Z,105
2016-12-09T12:07:58.922Z,105
2016-12-09T12:08:59.159Z,100
2016-12-09T12:09:59.071Z,100
2016-12-09T12:10:59.037Z,90
2016-12-09T12:11:59.041Z,95
2016-12-09T12:12:59.047Z,90
2016-12-09T12:13:59.332Z,90
2016-12-09T12:15:00.153Z,75
2016-12-09T12:16:00.535Z,70
2016-12-09T12:16:59.472Z,60
2016-12-09T12:17:58.972Z,50
2016-12-09T12:18:58.987Z,50
2016-12-09T12:19:58.924Z,50
2016-12-09T12:20:59.513Z,50
2016-12-09T12:21:58.835Z,55
2016-12-09T12:22:59.195Z,55
2016-12-09T12:23:59.684Z,60
2016-12-09T12:24:58.902Z,75
2016-12-09T12:25:58.966Z,75
2016-12-09T12:26:58.972Z,70
2016-12-09T12:27:58.983Z,55
2016-12-09T12:28:59.057Z,40
2016-12-09T12:30:00.982Z,40
2016-12-09T12:30:58.998Z,40
2016-12-09T12:31:59.585Z,40
2016-12-09T12:32:59.249Z,45
2016-12-09T12:33:58.883Z,50
2016-12-09T12:34:58.862Z,50
2016-12-09T12:35:59.724Z,45
2016-12-09T12:37:00.261Z,45
2016-12-09T12:37:59.136Z,50
2016-12-09T12:38:59.975Z,45
2016-12-09T12:39:59.429Z,50
2016-12-09T12:40:59.002Z,50
2016-12-09T12:41:59.054Z,50
2016-12-09T12:42:58.887Z,50
2016-12-09T12:43:59.990Z,45
2016-12-09T12:44:58.907Z,50
2016-12-09T12:45:59.909Z,40
2016-12-09T12:46:58.898Z,45
2016-12-09T12:48:00.350Z,40
2016-12-09T12:48:58.747Z,35
2016-12-09T12:49:58.918Z,30
2016-12-09T12:50:58.769Z,30
2016-12-09T12:52:00.210Z,40
2016-12-09T12:52:58.860Z,40
2016-12-09T12:53:58.879Z,45
2016-12-09T12:54:58.949Z,50
2016-12-09T12:55:59.084Z,50
2016-12-09T12:56:58.796Z,50
2016-12-09T12:57:58.998Z,50
2016-12-09T12:58:58.879Z,45
2016-12-09T12:59:58.951Z,50
2016-12-09T13:00:59.195Z,55
2016-12-09T13:01:58.998Z,55
2016-12-09T13:02:58.955Z,50
2016-12-09T13:03:59.180Z,45
2016-12-09T13:04:58.895Z,40
2016-12-09T13:05:58.872Z,35
2016-12-09T13:06:58.953Z,30
2016-12-09T13:07:59.138Z,25
2016-12-09T13:08:58.943Z,30
2016-12-09T13:09:58.937Z,30
2016-12-09T13:10:58.986Z,35
2016-12-09T13:11:59.107Z,30
2016-12-09T13:12:59.123Z,30
2016-12-09T13:13:59.327Z,25
2016-12-09T13:14:59.214Z,25
2016-12-09T13:15:58.978Z,25
2016-12-09T13:16:59.242Z,25
2016-12-09T13:17:58.994Z,25
2016-12-09T13:18:58.880Z,25
2016-12-09T13:19:59.698Z,30
2016-12-09T13:20:59.724Z,30
2016-12-09T13:21:59.674Z,25
2016-12-09T13:22:59.344Z,30
2016-12-09T13:23:59.321Z,40
2016-12-09T13:24:59.563Z,40
2016-12-09T13:25:59.363Z,45
2016-12-09T13:26:59.010Z,45
2016-12-09T13:27:59.555Z,40
2016-12-09T13:28:59.533Z,45
2016-12-09T13:29:59.057Z,40
2016-12-09T13:30:59.139Z,35
2016-12-09T13:31:58.997Z,35
2016-12-09T13:32:59.102Z,35
2016-12-09T13:33:59.382Z,35
2016-12-09T13:34:59.116Z,30
2016-12-09T13:35:59.196Z,30
2016-12-09T13:36:58.924Z,25
2016-12-09T13:37:59.189Z,35
2016-12-09T13:38:59.163Z,35
2016-12-09T13:39:59.129Z,30
2016-12-09T13:40:59.134Z,30
2016-12-09T13:42:00.167Z,30
2016-12-09T13:42:59.678Z,30
2016-12-09T13:43:59.073Z,35
2016-12-09T13:44:59.257Z,40
2016-12-09T13:45:59.377Z,50
2016-12-09T13:46:59.895Z,45
2016-12-09T13:48:03.334Z,45
2016-12-09T13:49:00.217Z,45
2016-12-09T13:49:59.217Z,50
2016-12-09T13:50:59.349Z,55
2016-12-09T13:51:59.348Z,50
2016-12-09T13:52:59.359Z,45
2016-12-09T13:53:59.320Z,45
2016-12-09T13:54:59.541Z,45
2016-12-09T13:55:59.580Z,45
2016-12-09T13:56:59.662Z,40
2016-12-09T13:58:00.456Z,45
2016-12-09T13:59:00.540Z,50
2016-12-09T14:00:01.233Z,55
2016-12-09T14:00:59.627Z,50
2016-12-09T14:02:00.124Z,45
2016-12-09T14:02:59.177Z,45
2016-12-09T14:04:00.262Z,45
2016-12-09T14:04:59.318Z,50
2016-12-09T14:05:59.151Z,40
2016-12-09T14:06:59.302Z,35
2016-12-09T14:07:59.480Z,30
2016-12-09T14:08:59.068Z,30
2016-12-09T14:09:59.206Z,20
2016-12-09T14:10:58.964Z,15
2016-12-09T14:12:00.641Z,20
2016-12-09T14:12:59.473Z,20
2016-12-09T14:13:59.741Z,20
2016-12-09T14:14:59.552Z,15
2016-12-09T14:16:00.305Z,15
2016-12-09T14:16:59.454Z,15
2016-12-09T14:17:59.883Z,20
2016-12-09T14:18:59.806Z,15
2016-12-09T14:19:59.710Z,10
2016-12-09T14:20:59.052Z,15
2016-12-09T14:21:59.347Z,15
2016-12-09T14:22:59.966Z,15
2016-12-09T14:23:59.739Z,10
2016-12-09T14:24:59.123Z,10
2016-12-09T14:25:59.478Z,10
2016-12-09T14:26:59.748Z,10
2016-12-09T14:27:59.465Z,10
2016-12-09T14:28:59.557Z,10
2016-12-09T14:30:00.198Z,10
2016-12-09T14:30:59.716Z,10
2016-12-09T14:32:00.008Z,5
2016-12-09T14:33:00.083Z,5
2016-12-09T14:33:59.184Z,5